sensor_id;sensor_type;location;lat;lon;timestamp;pressure;altitude;pressure_sealevel;temperature;humidity
3598;BME280;1813;52.016;8.714;2023-02-20T00:02:29;-16261.94;;;-139.71;78.29
3598;BME280;1813;52.016;8.714;2023-02-20T00:05:06;-16261.94;;;-139.71;78.41
3598;BME280;1813;52.016;8.714;2023-02-20T00:07:40;-16261.94;;;-139.71;78.26
3598;BME280;1813;52.016;8.714;2023-02-20T00:10:15;-16261.94;;;-139.71;78.37
3598;BME280;1813;52.016;8.714;2023-02-20T00:12:51;-16261.94;;;-139.71;78.27
3598;BME280;1813;52.016;8.714;2023-02-20T00:15:25;-16261.94;;;-139.71;78.16
3598;BME280;1813;52.016;8.714;2023-02-20T00:17:59;-16261.94;;;-139.71;78.01
3598;BME280;1813;52.016;8.714;2023-02-20T00:20:35;-16261.94;;;-139.71;77.75
3598;BME280;1813;52.016;8.714;2023-02-20T00:23:10;-16261.94;;;-139.71;77.67
3598;BME280;1813;52.016;8.714;2023-02-20T00:25:44;-16261.94;;;-139.71;77.39
3598;BME280;1813;52.016;8.714;2023-02-20T00:28:18;-16261.94;;;-139.71;77.25
3598;BME280;1813;52.016;8.714;2023-02-20T00:30:53;-16261.94;;;-139.71;77.27
3598;BME280;1813;52.016;8.714;2023-02-20T00:33:26;-16261.94;;;-139.71;77.17
3598;BME280;1813;52.016;8.714;2023-02-20T00:36:05;-16261.94;;;-139.71;77.19
3598;BME280;1813;52.016;8.714;2023-02-20T00:38:39;-16261.94;;;-139.71;77.27
3598;BME280;1813;52.016;8.714;2023-02-20T00:41:14;-16261.94;;;-139.71;77.29
3598;BME280;1813;52.016;8.714;2023-02-20T00:43:49;-16261.94;;;-139.71;77.50
3598;BME280;1813;52.016;8.714;2023-02-20T00:46:23;-16261.94;;;-139.71;77.66
3598;BME280;1813;52.016;8.714;2023-02-20T00:48:58;-16261.94;;;-139.71;77.64
3598;BME280;1813;52.016;8.714;2023-02-20T00:51:53;-16261.94;;;-139.71;77.73
3598;BME280;1813;52.016;8.714;2023-02-20T00:54:27;-16261.94;;;-139.71;77.80
3598;BME280;1813;52.016;8.714;2023-02-20T00:57:01;-16261.94;;;-139.71;78.18
3598;BME280;1813;52.016;8.714;2023-02-20T00:59:35;-16261.94;;;-139.71;78.33
3598;BME280;1813;52.016;8.714;2023-02-20T01:02:09;-16261.94;;;-139.71;78.46
3598;BME280;1813;52.016;8.714;2023-02-20T01:04:43;-16261.94;;;-139.71;78.54
3598;BME280;1813;52.016;8.714;2023-02-20T01:07:19;-16261.94;;;-139.71;78.67
3598;BME280;1813;52.016;8.714;2023-02-20T01:09:53;-16261.94;;;-139.71;78.77
3598;BME280;1813;52.016;8.714;2023-02-20T01:12:27;-16261.94;;;-139.71;78.67
3598;BME280;1813;52.016;8.714;2023-02-20T01:15:01;-16261.94;;;-139.71;78.59
3598;BME280;1813;52.016;8.714;2023-02-20T01:17:35;-16261.94;;;-139.71;78.79
3598;BME280;1813;52.016;8.714;2023-02-20T01:20:09;-16261.94;;;-139.71;78.89
3598;BME280;1813;52.016;8.714;2023-02-20T01:22:46;-16261.94;;;-139.71;79.06
3598;BME280;1813;52.016;8.714;2023-02-20T01:25:20;-16261.94;;;-139.71;79.01
3598;BME280;1813;52.016;8.714;2023-02-20T01:27:53;-16261.94;;;-139.71;79.20
3598;BME280;1813;52.016;8.714;2023-02-20T01:30:28;-16261.94;;;-139.71;79.24
3598;BME280;1813;52.016;8.714;2023-02-20T01:33:01;-16261.94;;;-139.71;79.35
3598;BME280;1813;52.016;8.714;2023-02-20T01:35:35;-16261.94;;;-139.71;79.25
3598;BME280;1813;52.016;8.714;2023-02-20T01:38:11;-16261.94;;;-139.71;79.23
3598;BME280;1813;52.016;8.714;2023-02-20T01:40:48;-16261.94;;;-139.71;79.21
3598;BME280;1813;52.016;8.714;2023-02-20T01:43:22;-16261.94;;;-139.71;79.21
3598;BME280;1813;52.016;8.714;2023-02-20T01:49:13;-16261.94;;;-139.71;79.05
3598;BME280;1813;52.016;8.714;2023-02-20T01:51:53;-16261.94;;;-139.71;78.90
3598;BME280;1813;52.016;8.714;2023-02-20T01:54:33;-16261.94;;;-139.71;79.20
3598;BME280;1813;52.016;8.714;2023-02-20T01:57:12;-16261.94;;;-139.71;79.06
3598;BME280;1813;52.016;8.714;2023-02-20T01:59:49;-16261.94;;;-139.71;78.78
3598;BME280;1813;52.016;8.714;2023-02-20T02:02:25;-16261.94;;;-139.71;78.96
3598;BME280;1813;52.016;8.714;2023-02-20T02:05:01;-16261.94;;;-139.71;78.83
3598;BME280;1813;52.016;8.714;2023-02-20T02:07:35;-16261.94;;;-139.71;78.97
3598;BME280;1813;52.016;8.714;2023-02-20T02:10:13;-16261.94;;;-139.71;78.90
3598;BME280;1813;52.016;8.714;2023-02-20T02:12:52;-16261.94;;;-139.71;78.95
3598;BME280;1813;52.016;8.714;2023-02-20T02:15:26;-16261.94;;;-139.71;78.84
3598;BME280;1813;52.016;8.714;2023-02-20T02:18:19;-16261.94;;;-139.71;78.90
3598;BME280;1813;52.016;8.714;2023-02-20T02:24:38;-16261.94;;;-139.71;79.17
3598;BME280;1813;52.016;8.714;2023-02-20T02:27:34;-16261.94;;;-139.71;79.13
3598;BME280;1813;52.016;8.714;2023-02-20T02:30:45;-16261.94;;;-139.71;79.23
3598;BME280;1813;52.016;8.714;2023-02-20T02:34:07;-16261.94;;;-139.71;79.15
3598;BME280;1813;52.016;8.714;2023-02-20T02:36:53;-16261.94;;;-139.71;79.31
3598;BME280;1813;52.016;8.714;2023-02-20T02:39:36;-16261.94;;;-139.71;79.41
3598;BME280;1813;52.016;8.714;2023-02-20T02:42:19;-16261.94;;;-139.71;79.64
3598;BME280;1813;52.016;8.714;2023-02-20T02:44:59;-16261.94;;;-139.71;79.72
3598;BME280;1813;52.016;8.714;2023-02-20T02:47:41;-16261.94;;;-139.71;79.60
3598;BME280;1813;52.016;8.714;2023-02-20T02:50:22;-16261.94;;;-139.71;79.48
3598;BME280;1813;52.016;8.714;2023-02-20T02:53:00;-16261.94;;;-139.71;79.50
3598;BME280;1813;52.016;8.714;2023-02-20T02:55:36;-16261.94;;;-139.71;79.56
3598;BME280;1813;52.016;8.714;2023-02-20T02:58:13;-16261.94;;;-139.71;79.25
3598;BME280;1813;52.016;8.714;2023-02-20T03:00:51;-16261.94;;;-139.71;79.15
3598;BME280;1813;52.016;8.714;2023-02-20T03:03:32;-16261.94;;;-139.71;79.10
3598;BME280;1813;52.016;8.714;2023-02-20T03:06:11;-16261.94;;;-139.71;79.22
3598;BME280;1813;52.016;8.714;2023-02-20T03:08:55;-16261.94;;;-139.71;79.28
3598;BME280;1813;52.016;8.714;2023-02-20T03:11:33;-16261.94;;;-139.71;79.26
3598;BME280;1813;52.016;8.714;2023-02-20T03:14:11;-16261.94;;;-139.71;79.24
3598;BME280;1813;52.016;8.714;2023-02-20T03:17:04;-16261.94;;;-139.71;79.30
3598;BME280;1813;52.016;8.714;2023-02-20T03:19:44;-16261.94;;;-139.71;79.48
3598;BME280;1813;52.016;8.714;2023-02-20T03:22:20;-16261.94;;;-139.71;79.59
3598;BME280;1813;52.016;8.714;2023-02-20T03:25:03;-16261.94;;;-139.71;79.65
3598;BME280;1813;52.016;8.714;2023-02-20T03:27:42;-16261.94;;;-139.71;79.55
3598;BME280;1813;52.016;8.714;2023-02-20T03:30:20;-16261.94;;;-139.71;79.91
3598;BME280;1813;52.016;8.714;2023-02-20T03:33:03;-16261.94;;;-139.71;79.95
3598;BME280;1813;52.016;8.714;2023-02-20T03:35:50;-16261.94;;;-139.71;79.82
3598;BME280;1813;52.016;8.714;2023-02-20T03:38:41;-16261.94;;;-139.71;80.24
3598;BME280;1813;52.016;8.714;2023-02-20T03:41:33;-16261.94;;;-139.71;80.26
3598;BME280;1813;52.016;8.714;2023-02-20T03:44:21;-16261.94;;;-139.71;80.39
3598;BME280;1813;52.016;8.714;2023-02-20T03:47:00;-16261.94;;;-139.71;80.56
3598;BME280;1813;52.016;8.714;2023-02-20T03:49:37;-16261.94;;;-139.71;80.58
3598;BME280;1813;52.016;8.714;2023-02-20T03:52:20;-16261.94;;;-139.71;80.86
3598;BME280;1813;52.016;8.714;2023-02-20T03:54:55;-16261.94;;;-139.71;80.72
3598;BME280;1813;52.016;8.714;2023-02-20T03:57:33;-16261.94;;;-139.71;80.60
3598;BME280;1813;52.016;8.714;2023-02-20T04:00:13;-16261.94;;;-139.71;80.80
3598;BME280;1813;52.016;8.714;2023-02-20T04:02:57;-16261.94;;;-139.71;80.78
3598;BME280;1813;52.016;8.714;2023-02-20T04:05:39;-16261.94;;;-139.71;80.73
3598;BME280;1813;52.016;8.714;2023-02-20T04:08:20;-16261.94;;;-139.71;80.66
3598;BME280;1813;52.016;8.714;2023-02-20T04:11:01;-16261.94;;;-139.71;80.45
3598;BME280;1813;52.016;8.714;2023-02-20T04:13:40;-16261.94;;;-139.71;80.60
3598;BME280;1813;52.016;8.714;2023-02-20T04:16:14;-16261.94;;;-139.71;80.48
3598;BME280;1813;52.016;8.714;2023-02-20T04:18:49;-16261.94;;;-139.71;80.57
3598;BME280;1813;52.016;8.714;2023-02-20T04:21:30;-16261.94;;;-139.71;80.49
3598;BME280;1813;52.016;8.714;2023-02-20T04:24:08;-16261.94;;;-139.71;80.57
3598;BME280;1813;52.016;8.714;2023-02-20T04:26:44;-16261.94;;;-139.71;80.64
3598;BME280;1813;52.016;8.714;2023-02-20T04:29:22;-16261.94;;;-139.71;80.56
3598;BME280;1813;52.016;8.714;2023-02-20T04:31:57;-16261.94;;;-139.71;80.25
3598;BME280;1813;52.016;8.714;2023-02-20T04:34:36;-16261.94;;;-139.71;80.08
3598;BME280;1813;52.016;8.714;2023-02-20T04:37:15;-16261.94;;;-139.71;79.97
3598;BME280;1813;52.016;8.714;2023-02-20T04:39:51;-16261.94;;;-139.71;79.92
3598;BME280;1813;52.016;8.714;2023-02-20T04:42:26;-16261.94;;;-139.71;79.54
3598;BME280;1813;52.016;8.714;2023-02-20T04:45:04;-16261.94;;;-139.71;79.50
3598;BME280;1813;52.016;8.714;2023-02-20T04:47:39;-16261.94;;;-139.71;79.36
3598;BME280;1813;52.016;8.714;2023-02-20T04:50:19;-16261.94;;;-139.71;79.40
3598;BME280;1813;52.016;8.714;2023-02-20T04:52:54;-16261.94;;;-139.71;79.16
3598;BME280;1813;52.016;8.714;2023-02-20T04:55:29;-16261.94;;;-139.71;78.90
3598;BME280;1813;52.016;8.714;2023-02-20T04:58:07;-16261.94;;;-139.71;78.66
3598;BME280;1813;52.016;8.714;2023-02-20T05:00:57;-16261.94;;;-139.71;78.66
3598;BME280;1813;52.016;8.714;2023-02-20T05:03:31;-16261.94;;;-139.71;78.57
3598;BME280;1813;52.016;8.714;2023-02-20T05:06:05;-16261.94;;;-139.71;78.33
3598;BME280;1813;52.016;8.714;2023-02-20T05:08:39;-16261.94;;;-139.71;78.43
3598;BME280;1813;52.016;8.714;2023-02-20T05:11:13;-16261.94;;;-139.71;78.31
3598;BME280;1813;52.016;8.714;2023-02-20T05:13:46;-16261.94;;;-139.71;78.31
3598;BME280;1813;52.016;8.714;2023-02-20T05:16:22;-16261.94;;;-139.71;78.35
3598;BME280;1813;52.016;8.714;2023-02-20T05:18:58;-16261.94;;;-139.71;78.14
3598;BME280;1813;52.016;8.714;2023-02-20T05:21:33;-16261.94;;;-139.71;78.26
3598;BME280;1813;52.016;8.714;2023-02-20T05:24:22;-16261.94;;;-139.71;78.26
3598;BME280;1813;52.016;8.714;2023-02-20T05:26:58;-16261.94;;;-139.71;78.21
3598;BME280;1813;52.016;8.714;2023-02-20T05:29:32;-16261.94;;;-139.71;78.30
3598;BME280;1813;52.016;8.714;2023-02-20T05:32:10;-16261.94;;;-139.71;78.48
3598;BME280;1813;52.016;8.714;2023-02-20T05:34:45;-16261.94;;;-139.71;78.61
3598;BME280;1813;52.016;8.714;2023-02-20T05:37:20;-16261.94;;;-139.71;78.87
3598;BME280;1813;52.016;8.714;2023-02-20T05:39:55;-16261.94;;;-139.71;78.72
3598;BME280;1813;52.016;8.714;2023-02-20T05:42:29;-16261.94;;;-139.71;78.91
3598;BME280;1813;52.016;8.714;2023-02-20T05:45:03;-16261.94;;;-139.71;78.91
3598;BME280;1813;52.016;8.714;2023-02-20T05:47:41;-16261.94;;;-139.71;79.21
3598;BME280;1813;52.016;8.714;2023-02-20T05:50:15;-16261.94;;;-139.71;78.91
3598;BME280;1813;52.016;8.714;2023-02-20T05:52:49;-16261.94;;;-139.71;78.88
3598;BME280;1813;52.016;8.714;2023-02-20T05:55:23;-16261.94;;;-139.71;78.88
3598;BME280;1813;52.016;8.714;2023-02-20T05:57:57;-16261.94;;;-139.71;79.02
3598;BME280;1813;52.016;8.714;2023-02-20T06:00:31;-16261.94;;;-139.71;79.16
3598;BME280;1813;52.016;8.714;2023-02-20T06:03:08;-16261.94;;;-139.71;78.84
3598;BME280;1813;52.016;8.714;2023-02-20T06:05:42;-16261.94;;;-139.71;78.83
3598;BME280;1813;52.016;8.714;2023-02-20T06:08:17;-16261.94;;;-139.71;78.58
3598;BME280;1813;52.016;8.714;2023-02-20T06:10:51;-16261.94;;;-139.71;78.72
3598;BME280;1813;52.016;8.714;2023-02-20T06:13:25;-16261.94;;;-139.71;78.66
3598;BME280;1813;52.016;8.714;2023-02-20T06:15:59;-16261.94;;;-139.71;78.89
3598;BME280;1813;52.016;8.714;2023-02-20T06:18:37;-16261.94;;;-139.71;78.79
3598;BME280;1813;52.016;8.714;2023-02-20T06:21:11;-16261.94;;;-139.71;79.06
3598;BME280;1813;52.016;8.714;2023-02-20T06:23:45;-16261.94;;;-139.71;78.98
3598;BME280;1813;52.016;8.714;2023-02-20T06:26:20;-16261.94;;;-139.71;79.15
3598;BME280;1813;52.016;8.714;2023-02-20T06:28:54;-16261.94;;;-139.71;78.97
3598;BME280;1813;52.016;8.714;2023-02-20T06:31:28;-16261.94;;;-139.71;78.97
3598;BME280;1813;52.016;8.714;2023-02-20T06:34:05;-16261.94;;;-139.71;78.65
3598;BME280;1813;52.016;8.714;2023-02-20T06:36:41;-16261.94;;;-139.71;78.70
3598;BME280;1813;52.016;8.714;2023-02-20T06:39:15;-16261.94;;;-139.71;79.03
3598;BME280;1813;52.016;8.714;2023-02-20T06:41:50;-16261.94;;;-139.71;79.07
3598;BME280;1813;52.016;8.714;2023-02-20T06:44:24;-16261.94;;;-139.71;79.11
3598;BME280;1813;52.016;8.714;2023-02-20T06:46:58;-16261.94;;;-139.71;79.01
3598;BME280;1813;52.016;8.714;2023-02-20T06:49:35;-16261.94;;;-139.71;78.91
3598;BME280;1813;52.016;8.714;2023-02-20T06:52:11;-16261.94;;;-139.71;78.96
3598;BME280;1813;52.016;8.714;2023-02-20T06:54:46;-16261.94;;;-139.71;78.96
3598;BME280;1813;52.016;8.714;2023-02-20T06:57:22;-16261.94;;;-139.71;78.99
3598;BME280;1813;52.016;8.714;2023-02-20T06:59:56;-16261.94;;;-139.71;78.81
3598;BME280;1813;52.016;8.714;2023-02-20T07:02:30;-16261.94;;;-139.71;78.70
3598;BME280;1813;52.016;8.714;2023-02-20T07:05:10;-16261.94;;;-139.71;78.69
3598;BME280;1813;52.016;8.714;2023-02-20T07:07:45;-16261.94;;;-139.71;78.81
3598;BME280;1813;52.016;8.714;2023-02-20T07:10:21;-16261.94;;;-139.71;78.75
3598;BME280;1813;52.016;8.714;2023-02-20T07:12:54;-16261.94;;;-139.71;78.66
3598;BME280;1813;52.016;8.714;2023-02-20T07:15:28;-16261.94;;;-139.71;78.71
3598;BME280;1813;52.016;8.714;2023-02-20T07:18:02;-16261.94;;;-139.71;78.67
3598;BME280;1813;52.016;8.714;2023-02-20T07:20:38;-16261.94;;;-139.71;78.56
3598;BME280;1813;52.016;8.714;2023-02-20T07:23:12;-16261.94;;;-139.71;78.74
3598;BME280;1813;52.016;8.714;2023-02-20T07:25:46;-16261.94;;;-139.71;78.57
3598;BME280;1813;52.016;8.714;2023-02-20T07:28:22;-16261.94;;;-139.71;78.33
3598;BME280;1813;52.016;8.714;2023-02-20T07:30:56;-16261.94;;;-139.71;78.44
3598;BME280;1813;52.016;8.714;2023-02-20T07:33:30;-16261.94;;;-139.71;78.55
3598;BME280;1813;52.016;8.714;2023-02-20T07:36:08;-16261.94;;;-139.71;78.50
3598;BME280;1813;52.016;8.714;2023-02-20T07:38:42;-16261.94;;;-139.71;78.18
3598;BME280;1813;52.016;8.714;2023-02-20T07:41:16;-16261.94;;;-139.71;78.39
3598;BME280;1813;52.016;8.714;2023-02-20T07:43:51;-16261.94;;;-139.71;78.44
3598;BME280;1813;52.016;8.714;2023-02-20T07:46:26;-16261.94;;;-139.71;78.27
3598;BME280;1813;52.016;8.714;2023-02-20T07:49:04;-16261.94;;;-139.71;78.39
3598;BME280;1813;52.016;8.714;2023-02-20T07:51:41;-16261.94;;;-139.71;78.57
3598;BME280;1813;52.016;8.714;2023-02-20T07:54:14;-16261.94;;;-139.71;78.67
3598;BME280;1813;52.016;8.714;2023-02-20T07:56:49;-16261.94;;;-139.71;78.71
3598;BME280;1813;52.016;8.714;2023-02-20T07:59:23;-16261.94;;;-139.71;78.73
3598;BME280;1813;52.016;8.714;2023-02-20T08:01:57;-16261.94;;;-139.71;78.91
3598;BME280;1813;52.016;8.714;2023-02-20T08:04:30;-16261.94;;;-139.71;78.78
3598;BME280;1813;52.016;8.714;2023-02-20T08:07:07;-16261.94;;;-139.71;78.94
3598;BME280;1813;52.016;8.714;2023-02-20T08:09:41;-16261.94;;;-139.71;78.88
3598;BME280;1813;52.016;8.714;2023-02-20T08:12:15;-16261.94;;;-139.71;78.88
3598;BME280;1813;52.016;8.714;2023-02-20T08:14:49;-16261.94;;;-139.71;78.65
3598;BME280;1813;52.016;8.714;2023-02-20T08:17:23;-16261.94;;;-139.71;78.54
3598;BME280;1813;52.016;8.714;2023-02-20T08:19:57;-16261.94;;;-139.71;78.66
3598;BME280;1813;52.016;8.714;2023-02-20T08:22:34;-16261.94;;;-139.71;78.51
3598;BME280;1813;52.016;8.714;2023-02-20T08:25:08;-16261.94;;;-139.71;78.43
3598;BME280;1813;52.016;8.714;2023-02-20T08:27:42;-16261.94;;;-139.71;78.59
3598;BME280;1813;52.016;8.714;2023-02-20T08:30:21;-16261.94;;;-139.71;78.72
3598;BME280;1813;52.016;8.714;2023-02-20T08:32:57;-16261.94;;;-139.71;78.76
3598;BME280;1813;52.016;8.714;2023-02-20T08:35:36;-16261.94;;;-139.71;78.80
3598;BME280;1813;52.016;8.714;2023-02-20T08:38:25;-16261.94;;;-139.71;78.90
3598;BME280;1813;52.016;8.714;2023-02-20T08:41:02;-16261.94;;;-139.71;78.83
3598;BME280;1813;52.016;8.714;2023-02-20T08:43:38;-16261.94;;;-139.71;78.89
3598;BME280;1813;52.016;8.714;2023-02-20T08:46:13;-16261.94;;;-139.71;78.96
3598;BME280;1813;52.016;8.714;2023-02-20T08:48:46;-16261.94;;;-139.71;78.76
3598;BME280;1813;52.016;8.714;2023-02-20T08:51:20;-16261.94;;;-139.71;78.63
3598;BME280;1813;52.016;8.714;2023-02-20T08:53:58;-16261.94;;;-139.71;78.90
3598;BME280;1813;52.016;8.714;2023-02-20T08:56:33;-16261.94;;;-139.71;78.71
3598;BME280;1813;52.016;8.714;2023-02-20T08:59:07;-16261.94;;;-139.71;78.79
3598;BME280;1813;52.016;8.714;2023-02-20T09:01:41;-16261.94;;;-139.71;78.97
3598;BME280;1813;52.016;8.714;2023-02-20T09:04:15;-16261.94;;;-139.71;79.03
3598;BME280;1813;52.016;8.714;2023-02-20T09:06:51;-16261.94;;;-139.71;78.98
3598;BME280;1813;52.016;8.714;2023-02-20T09:09:27;-16261.94;;;-139.71;78.85
3598;BME280;1813;52.016;8.714;2023-02-20T09:12:01;-16261.94;;;-139.71;78.96
3598;BME280;1813;52.016;8.714;2023-02-20T09:14:35;-16261.94;;;-139.71;79.06
3598;BME280;1813;52.016;8.714;2023-02-20T09:17:10;-16261.94;;;-139.71;79.10
3598;BME280;1813;52.016;8.714;2023-02-20T09:19:44;-16261.94;;;-139.71;79.10
3598;BME280;1813;52.016;8.714;2023-02-20T09:22:21;-16261.94;;;-139.71;79.35
3598;BME280;1813;52.016;8.714;2023-02-20T09:24:58;-16261.94;;;-139.71;79.43
3598;BME280;1813;52.016;8.714;2023-02-20T09:27:32;-16261.94;;;-139.71;79.35
3598;BME280;1813;52.016;8.714;2023-02-20T09:30:06;-16261.94;;;-139.71;79.60
3598;BME280;1813;52.016;8.714;2023-02-20T09:32:43;-16261.94;;;-139.71;79.57
3598;BME280;1813;52.016;8.714;2023-02-20T09:35:20;-16261.94;;;-139.71;79.61
3598;BME280;1813;52.016;8.714;2023-02-20T09:37:55;-16261.94;;;-139.71;79.71
3598;BME280;1813;52.016;8.714;2023-02-20T09:40:34;-16261.94;;;-139.71;79.62
3598;BME280;1813;52.016;8.714;2023-02-20T09:43:15;-16261.94;;;-139.71;79.90
3598;BME280;1813;52.016;8.714;2023-02-20T09:45:58;-16261.94;;;-139.71;79.99
3598;BME280;1813;52.016;8.714;2023-02-20T09:48:45;-16261.94;;;-139.71;80.00
3598;BME280;1813;52.016;8.714;2023-02-20T09:51:29;-16261.94;;;-139.71;80.12
3598;BME280;1813;52.016;8.714;2023-02-20T09:54:05;-16261.94;;;-139.71;80.18
3598;BME280;1813;52.016;8.714;2023-02-20T09:56:48;-16261.94;;;-139.71;80.10
3598;BME280;1813;52.016;8.714;2023-02-20T09:59:26;-16261.94;;;-139.71;80.16
3598;BME280;1813;52.016;8.714;2023-02-20T10:02:09;-16261.94;;;-139.71;80.18
3598;BME280;1813;52.016;8.714;2023-02-20T10:04:47;-16261.94;;;-139.71;80.28
3598;BME280;1813;52.016;8.714;2023-02-20T10:07:24;-16261.94;;;-139.71;80.25
3598;BME280;1813;52.016;8.714;2023-02-20T10:09:59;-16261.94;;;-139.71;80.27
3598;BME280;1813;52.016;8.714;2023-02-20T10:12:40;-16261.94;;;-139.71;80.33
3598;BME280;1813;52.016;8.714;2023-02-20T10:15:19;-16261.94;;;-139.71;80.17
3598;BME280;1813;52.016;8.714;2023-02-20T10:18:05;-16261.94;;;-139.71;80.06
3598;BME280;1813;52.016;8.714;2023-02-20T10:20:50;-16261.94;;;-139.71;80.34
3598;BME280;1813;52.016;8.714;2023-02-20T10:23:35;-16261.94;;;-139.71;80.44
3598;BME280;1813;52.016;8.714;2023-02-20T10:26:14;-16261.94;;;-139.71;80.63
3598;BME280;1813;52.016;8.714;2023-02-20T10:28:55;-16261.94;;;-139.71;80.72
3598;BME280;1813;52.016;8.714;2023-02-20T10:31:35;-16261.94;;;-139.71;80.66
3598;BME280;1813;52.016;8.714;2023-02-20T10:34:13;-16261.94;;;-139.71;80.73
3598;BME280;1813;52.016;8.714;2023-02-20T10:36:51;-16261.94;;;-139.71;80.64
3598;BME280;1813;52.016;8.714;2023-02-20T10:39:29;-16261.94;;;-139.71;80.89
3598;BME280;1813;52.016;8.714;2023-02-20T10:42:10;-16261.94;;;-139.71;80.87
3598;BME280;1813;52.016;8.714;2023-02-20T10:44:52;-16261.94;;;-139.71;80.78
3598;BME280;1813;52.016;8.714;2023-02-20T10:47:33;-16261.94;;;-139.71;80.90
3598;BME280;1813;52.016;8.714;2023-02-20T10:50:16;-16261.94;;;-139.71;80.94
3598;BME280;1813;52.016;8.714;2023-02-20T10:52:54;-16261.94;;;-139.71;80.97
3598;BME280;1813;52.016;8.714;2023-02-20T10:55:33;-16261.94;;;-139.71;80.74
3598;BME280;1813;52.016;8.714;2023-02-20T10:58:12;-16261.94;;;-139.71;80.88
3598;BME280;1813;52.016;8.714;2023-02-20T11:00:53;-16261.94;;;-139.71;80.88
3598;BME280;1813;52.016;8.714;2023-02-20T11:03:33;-16261.94;;;-139.71;81.17
3598;BME280;1813;52.016;8.714;2023-02-20T11:06:15;-16261.94;;;-139.71;81.15
3598;BME280;1813;52.016;8.714;2023-02-20T11:08:51;-16261.94;;;-139.71;80.97
3598;BME280;1813;52.016;8.714;2023-02-20T11:11:30;-16261.94;;;-139.71;80.90
3598;BME280;1813;52.016;8.714;2023-02-20T11:14:10;-16261.94;;;-139.71;80.70
3598;BME280;1813;52.016;8.714;2023-02-20T11:16:51;-16261.94;;;-139.71;80.70
3598;BME280;1813;52.016;8.714;2023-02-20T11:19:30;-16261.94;;;-139.71;80.74
3598;BME280;1813;52.016;8.714;2023-02-20T11:22:05;-16261.94;;;-139.71;80.86
3598;BME280;1813;52.016;8.714;2023-02-20T11:24:40;-16261.94;;;-139.71;80.77
3598;BME280;1813;52.016;8.714;2023-02-20T11:27:16;-16261.94;;;-139.71;80.80
3598;BME280;1813;52.016;8.714;2023-02-20T11:29:55;-16261.94;;;-139.71;80.86
3598;BME280;1813;52.016;8.714;2023-02-20T11:32:38;-16261.94;;;-139.71;81.15
3598;BME280;1813;52.016;8.714;2023-02-20T11:35:27;-16261.94;;;-139.71;81.26
3598;BME280;1813;52.016;8.714;2023-02-20T11:38:28;-16261.94;;;-139.71;81.24
3598;BME280;1813;52.016;8.714;2023-02-20T11:41:22;-16261.94;;;-139.71;81.55
3598;BME280;1813;52.016;8.714;2023-02-20T11:47:17;-16261.94;;;-139.71;81.91
3598;BME280;1813;52.016;8.714;2023-02-20T11:50:11;-16261.94;;;-139.71;82.16
3598;BME280;1813;52.016;8.714;2023-02-20T11:53:00;-16261.94;;;-139.71;82.09
3598;BME280;1813;52.016;8.714;2023-02-20T11:55:35;-16261.94;;;-139.71;82.05
3598;BME280;1813;52.016;8.714;2023-02-20T11:58:10;-16261.94;;;-139.71;82.21
3598;BME280;1813;52.016;8.714;2023-02-20T12:00:54;-16261.94;;;-139.71;82.62
3598;BME280;1813;52.016;8.714;2023-02-20T12:03:29;-16261.94;;;-139.71;82.56
3598;BME280;1813;52.016;8.714;2023-02-20T12:06:37;-16261.94;;;-139.71;82.66
3598;BME280;1813;52.016;8.714;2023-02-20T12:09:15;-16261.94;;;-139.71;82.68
3598;BME280;1813;52.016;8.714;2023-02-20T12:11:55;-16261.94;;;-139.71;82.93
3598;BME280;1813;52.016;8.714;2023-02-20T12:14:29;-16261.94;;;-139.71;82.78
3598;BME280;1813;52.016;8.714;2023-02-20T12:17:10;-16261.94;;;-139.71;82.79
3598;BME280;1813;52.016;8.714;2023-02-20T12:19:53;-16261.94;;;-139.71;82.81
3598;BME280;1813;52.016;8.714;2023-02-20T12:22:38;-16261.94;;;-139.71;83.06
3598;BME280;1813;52.016;8.714;2023-02-20T12:25:24;-16261.94;;;-139.71;82.81
3598;BME280;1813;52.016;8.714;2023-02-20T12:28:15;-16261.94;;;-139.71;82.99
3598;BME280;1813;52.016;8.714;2023-02-20T12:31:03;-16261.94;;;-139.71;82.89
3598;BME280;1813;52.016;8.714;2023-02-20T12:33:59;-16261.94;;;-139.71;82.67
3598;BME280;1813;52.016;8.714;2023-02-20T12:36:39;-16261.94;;;-139.71;82.74
3598;BME280;1813;52.016;8.714;2023-02-20T12:39:24;-16261.94;;;-139.71;82.66
3598;BME280;1813;52.016;8.714;2023-02-20T12:42:07;-16261.94;;;-139.71;82.50
3598;BME280;1813;52.016;8.714;2023-02-20T12:45:02;-16261.94;;;-139.71;82.62
3598;BME280;1813;52.016;8.714;2023-02-20T12:47:41;-16261.94;;;-139.71;82.45
3598;BME280;1813;52.016;8.714;2023-02-20T12:50:29;-16261.94;;;-139.71;82.47
3598;BME280;1813;52.016;8.714;2023-02-20T12:53:18;-16261.94;;;-139.71;82.49
3598;BME280;1813;52.016;8.714;2023-02-20T12:56:06;-16261.94;;;-139.71;82.51
3598;BME280;1813;52.016;8.714;2023-02-20T12:58:49;-16261.94;;;-139.71;82.71
3598;BME280;1813;52.016;8.714;2023-02-20T13:01:26;-16261.94;;;-139.71;82.70
3598;BME280;1813;52.016;8.714;2023-02-20T13:04:04;-16261.94;;;-139.71;83.22
3598;BME280;1813;52.016;8.714;2023-02-20T13:06:45;-16261.94;;;-139.71;83.02
3598;BME280;1813;52.016;8.714;2023-02-20T13:09:27;-16261.94;;;-139.71;82.88
3598;BME280;1813;52.016;8.714;2023-02-20T13:12:10;-16261.94;;;-139.71;82.87
3598;BME280;1813;52.016;8.714;2023-02-20T13:14:55;-16261.94;;;-139.71;83.01
3598;BME280;1813;52.016;8.714;2023-02-20T13:17:41;-16261.94;;;-139.71;83.16
3598;BME280;1813;52.016;8.714;2023-02-20T13:20:19;-16261.94;;;-139.71;83.00
3598;BME280;1813;52.016;8.714;2023-02-20T13:23:01;-16261.94;;;-139.71;83.35
3598;BME280;1813;52.016;8.714;2023-02-20T13:25:38;-16261.94;;;-139.71;83.41
3598;BME280;1813;52.016;8.714;2023-02-20T13:28:33;-16261.94;;;-139.71;83.76
3598;BME280;1813;52.016;8.714;2023-02-20T13:31:16;-16261.94;;;-139.71;83.80
3598;BME280;1813;52.016;8.714;2023-02-20T13:34:30;-16261.94;;;-139.71;83.90
3598;BME280;1813;52.016;8.714;2023-02-20T13:39:55;-16261.94;;;-139.71;84.16
3598;BME280;1813;52.016;8.714;2023-02-20T13:42:31;-16261.94;;;-139.71;84.22
3598;BME280;1813;52.016;8.714;2023-02-20T13:45:36;-16261.94;;;-139.71;84.27
3598;BME280;1813;52.016;8.714;2023-02-20T13:48:19;-16261.94;;;-139.71;84.22
3598;BME280;1813;52.016;8.714;2023-02-20T13:51:29;-16261.94;;;-139.71;84.44
3598;BME280;1813;52.016;8.714;2023-02-20T13:54:25;-16261.94;;;-139.71;84.59
3598;BME280;1813;52.016;8.714;2023-02-20T13:57:08;-16261.94;;;-139.71;84.41
3598;BME280;1813;52.016;8.714;2023-02-20T13:59:46;-16261.94;;;-139.71;84.58
3598;BME280;1813;52.016;8.714;2023-02-20T14:02:22;-16261.94;;;-139.71;84.54
3598;BME280;1813;52.016;8.714;2023-02-20T14:05:01;-16261.94;;;-139.71;84.48